Time;durP1;ratioP1;P1;durP2;ratioP2;P2;SDS_P1;SDS_P2;PMS_P1;PMS_P2;Temp;Humidity;BMP_temperature;BMP_pressure;BME280_temperature;BME280_humidity;BME280_pressure;Samples;Min_cycle;Max_cycle;Signal;HPM_P1;HPM_P2
2023/01/16 00:02:04;;;;;;;;;;;3.90;87.70;;;-151.14;100.00;62537.16;5012218;28;19928;-89
2023/01/16 00:04:33;;;;;;;;;;;3.90;87.70;;;18.09;100.00;62537.16;5041376;23;19931;-81
2023/01/16 00:07:01;;;;;;;;;;;3.90;87.60;;;-151.14;100.00;62537.16;5034695;28;19921;-82
2023/01/16 00:09:29;;;;;;;;;;;3.90;87.70;;;-151.14;100.00;62537.16;5068349;28;20459;-81
2023/01/16 00:11:57;;;;;;;;;;;3.80;87.50;;;-151.14;100.00;62537.16;5052769;28;19921;-81
2023/01/16 00:14:25;;;;;;;;;;;3.80;87.70;;;-151.14;100.00;62537.16;5055403;28;19932;-82
2023/01/16 00:16:55;;;;;;;;;;;3.80;87.80;;;-151.14;100.00;62537.16;5074012;28;19942;-82
2023/01/16 00:19:23;;;;;;;;;;;3.80;87.60;;;2.52;100.00;62537.16;5075873;28;19921;-82
2023/01/16 00:21:51;;;;;;;;;;;3.80;87.60;;;-151.14;100.00;62537.16;5059779;28;19921;-81
2023/01/16 00:24:18;;;;;;;;;;;3.80;87.60;;;-151.14;100.00;62537.16;5059459;28;19921;-82
2023/01/16 00:26:46;;;;;;;;;;;3.80;87.60;;;-151.14;100.00;62537.16;5059065;28;19943;-82
2023/01/16 00:29:14;;;;;;;;;;;3.80;87.70;;;-151.14;100.00;62537.16;5056343;28;19921;-82
2023/01/16 00:31:42;;;;;;;;;;;3.80;87.70;;;-151.14;100.00;62537.16;5073250;28;20014;-82
2023/01/16 00:34:12;;;;;;;;;;;3.80;87.60;;;-151.14;100.00;62537.16;5056183;28;19920;-82
2023/01/16 00:36:40;;;;;;;;;;;3.80;87.60;;;-151.14;100.00;62537.16;5070063;28;19920;-81
2023/01/16 00:39:08;;;;;;;;;;;3.80;87.60;;;-151.14;100.00;62537.16;5076496;28;19920;-82
2023/01/16 00:41:36;;;;;;;;;;;3.80;87.60;;;-151.14;100.00;62537.16;5059656;28;19927;-82
2023/01/16 00:44:04;;;;;;;;;;;3.80;87.60;;;-151.14;100.00;62537.16;5054507;28;19921;-82
2023/01/16 00:46:32;;;;;;;;;;;3.80;87.70;;;-151.14;100.00;62537.16;5071751;28;19921;-82
2023/01/16 00:48:59;;;;;;;;;;;3.80;87.60;;;18.12;100.00;62537.16;5070895;28;19927;-82
2023/01/16 00:51:29;;;;;;;;;;;3.80;87.60;;;-151.14;100.00;62537.16;5054632;28;20096;-82
2023/01/16 00:53:57;;;;;;;;;;;3.80;87.70;;;-151.14;100.00;62537.16;5054039;28;19927;-82
2023/01/16 00:56:25;;;;;;;;;;;3.80;87.70;;;-151.14;100.00;62537.16;5070365;28;19924;-82
2023/01/16 00:58:53;;;;;;;;;;;3.80;87.70;;;-151.14;100.00;62537.16;5071005;28;19927;-82
2023/01/16 01:01:20;;;;;;;;;;;3.80;87.60;;;-151.14;100.00;62537.16;5071967;28;19920;-82
2023/01/16 01:03:48;;;;;;;;;;;3.80;87.60;;;-151.14;100.00;62537.16;5054132;28;19920;-82
2023/01/16 01:06:16;;;;;;;;;;;3.80;87.70;;;-151.14;100.00;62537.16;5053631;28;19920;-82
2023/01/16 01:08:46;;;;;;;;;;;3.80;87.60;;;2.45;100.00;62537.16;5070620;28;19921;-82
2023/01/16 01:11:14;;;;;;;;;;;3.80;87.70;;;2.47;100.00;62537.16;5054022;28;20207;-82
2023/01/16 01:13:42;;;;;;;;;;;3.80;87.70;;;-151.14;100.00;62537.16;5070874;28;19921;-82
2023/01/16 01:16:11;;;;;;;;;;;3.80;87.80;;;2.47;100.00;62537.16;5070093;28;19921;-82
2023/01/16 01:18:39;;;;;;;;;;;3.80;87.80;;;-151.14;100.00;62537.16;5053947;28;19927;-82
2023/01/16 01:21:07;;;;;;;;;;;3.80;87.70;;;2.45;100.00;62537.16;5070741;28;19924;-82
2023/01/16 01:23:35;;;;;;;;;;;3.80;87.70;;;-151.14;100.00;62537.16;5070019;28;19943;-82
2023/01/16 01:26:08;;;;;;;;;;;3.80;87.70;;;18.09;100.00;62537.16;5053204;28;19920;-82
2023/01/16 01:28:36;;;;;;;;;;;3.80;87.60;;;-151.14;100.00;62537.16;5070934;28;19926;-82
2023/01/16 01:31:04;;;;;;;;;;;3.80;87.70;;;-151.14;100.00;62537.16;5053780;28;19920;-82
2023/01/16 01:33:32;;;;;;;;;;;3.80;87.70;;;-151.14;100.00;62537.16;5053663;28;19921;-82
2023/01/16 01:36:00;;;;;;;;;;;3.80;87.70;;;-151.14;100.00;62537.16;5069773;28;19920;-82
2023/01/16 01:38:29;;;;;;;;;;;3.80;87.80;;;2.44;100.00;62537.16;5070177;28;20208;-82
2023/01/16 01:40:57;;;;;;;;;;;3.80;87.70;;;2.43;100.00;62537.16;5053695;28;20122;-82
2023/01/16 01:43:40;;;;;;;;;;;3.80;87.80;;;-151.14;100.00;62537.16;5070155;28;19921;-82
2023/01/16 01:46:07;;;;;;;;;;;3.70;87.80;;;2.43;100.00;62537.16;5052962;28;19920;-82
2023/01/16 01:48:38;;;;;;;;;;;3.80;87.90;;;2.43;100.00;62537.16;5070050;28;19927;-82
2023/01/16 01:51:07;;;;;;;;;;;3.80;87.70;;;-151.14;100.00;62537.16;5070294;28;19921;-82
2023/01/16 01:53:36;;;;;;;;;;;3.70;87.90;;;-151.14;100.00;62537.16;5053641;28;19928;-82
2023/01/16 01:56:07;;;;;;;;;;;3.70;87.80;;;-151.14;100.00;62537.16;5069514;28;19920;-82
2023/01/16 01:58:36;;;;;;;;;;;3.70;87.70;;;-151.14;100.00;62537.16;5074830;28;19946;-82
2023/01/16 02:01:14;;;;;;;;;;;3.70;87.80;;;2.41;100.00;62537.16;5057748;28;19921;-82
2023/01/16 02:03:42;;;;;;;;;;;3.70;87.70;;;-151.14;100.00;62537.16;5077177;28;19951;-82
2023/01/16 02:06:15;;;;;;;;;;;3.70;87.70;;;-151.14;100.00;62537.16;5077252;28;19920;-82
2023/01/16 02:08:44;;;;;;;;;;;3.70;87.80;;;-151.14;100.00;62537.16;5057461;28;19927;-82
2023/01/16 02:11:25;;;;;;;;;;;3.70;87.80;;;-151.14;100.00;62537.16;5055963;28;19921;-82
2023/01/16 02:13:55;;;;;;;;;;;3.70;87.90;;;2.41;100.00;62537.16;5039119;28;20097;-82
2023/01/16 02:19:16;;;;;;;;;;;3.70;87.90;;;18.09;100.00;62537.16;5029958;28;20224;-81
2023/01/16 02:22:08;;;;;;;;;;;3.70;87.90;;;-151.14;100.00;62537.16;5013737;28;19921;-82
2023/01/16 02:24:52;;;;;;;;;;;3.70;87.80;;;2.41;100.00;62537.16;5016866;28;20248;-81
2023/01/16 02:27:35;;;;;;;;;;;3.70;87.70;;;-151.14;100.00;62537.16;5021994;28;19927;-81
2023/01/16 02:30:26;;;;;;;;;;;3.70;87.80;;;-151.14;100.00;62537.16;5052912;28;19927;-82
2023/01/16 02:33:04;;;;;;;;;;;3.70;87.90;;;-151.14;100.00;62537.16;5069625;28;19927;-82
2023/01/16 02:35:40;;;;;;;;;;;3.70;87.80;;;-151.14;100.00;62537.16;5052974;28;19920;-82
2023/01/16 02:38:11;;;;;;;;;;;3.70;87.90;;;2.38;100.00;62537.16;5074336;28;20134;-81
2023/01/16 02:40:43;;;;;;;;;;;3.70;87.80;;;2.39;100.00;62537.16;5073023;28;19921;-81
2023/01/16 02:43:16;;;;;;;;;;;3.70;87.90;;;-151.14;100.00;62537.16;5072920;28;19920;-82
2023/01/16 02:45:46;;;;;;;;;;;3.70;87.90;;;-151.14;100.00;62537.16;5073452;28;19942;-82
2023/01/16 02:48:23;;;;;;;;;;;3.70;87.90;;;-151.14;100.00;62537.16;5073280;28;20107;-82
2023/01/16 02:50:54;;;;;;;;;;;3.70;87.90;;;-151.14;100.00;62537.16;5055971;28;19920;-82
2023/01/16 02:53:24;;;;;;;;;;;3.70;87.90;;;-151.14;100.00;62537.16;5056259;28;19927;-82
2023/01/16 02:55:54;;;;;;;;;;;3.70;87.90;;;-151.14;100.00;62537.16;5071971;28;20224;-82
2023/01/16 02:58:22;;;;;;;;;;;3.70;87.90;;;-151.14;100.00;62537.16;5056195;28;19921;-82
2023/01/16 03:00:51;;;;;;;;;;;3.70;87.90;;;-151.14;100.00;62537.16;5073772;28;19927;-82
2023/01/16 03:03:35;;;;;;;;;;;3.70;87.90;;;-151.14;100.00;62537.16;5072696;28;19927;-81
2023/01/16 03:06:06;;;;;;;;;;;3.70;87.90;;;2.36;100.00;62537.16;5071984;28;20089;-81
2023/01/16 03:08:37;;;;;;;;;;;3.70;87.80;;;2.36;100.00;62537.16;5055366;28;19920;-81
2023/01/16 03:11:22;;;;;;;;;;;3.70;87.80;;;-151.14;100.00;62537.16;5054983;28;20119;-81
2023/01/16 03:13:56;;;;;;;;;;;3.70;87.90;;;-151.14;100.00;62537.16;5072620;28;19927;-81
2023/01/16 03:16:29;;;;;;;;;;;3.70;87.90;;;-151.14;100.00;62537.16;5071984;28;19929;-81
2023/01/16 03:19:04;;;;;;;;;;;3.70;88.00;;;-151.14;100.00;62537.16;5061660;28;20116;-82
2023/01/16 03:21:37;;;;;;;;;;;3.70;87.90;;;-151.14;100.00;62537.16;5053306;28;19920;-82
2023/01/16 03:24:07;;;;;;;;;;;3.70;87.90;;;-151.14;100.00;62537.16;5035708;28;19920;-82
2023/01/16 03:26:38;;;;;;;;;;;3.70;87.80;;;2.34;100.00;62537.16;5035105;28;19927;-81
2023/01/16 03:29:09;;;;;;;;;;;3.70;87.80;;;-151.14;100.00;62537.16;5035867;28;20119;-81
2023/01/16 03:31:40;;;;;;;;;;;3.70;87.90;;;-151.14;100.00;62537.16;5051973;28;19921;-81
2023/01/16 03:34:13;;;;;;;;;;;3.70;87.90;;;-151.14;100.00;62537.16;5052216;28;19928;-81
2023/01/16 03:36:44;;;;;;;;;;;3.70;87.80;;;2.35;100.00;62537.16;5034889;28;19927;-81
2023/01/16 03:39:13;;;;;;;;;;;3.70;87.90;;;-151.14;100.00;62537.16;5035704;28;19928;-82
2023/01/16 03:41:41;;;;;;;;;;;3.70;87.80;;;-151.14;100.00;62537.16;5051961;28;19921;-81
2023/01/16 03:44:12;;;;;;;;;;;3.70;87.90;;;2.33;100.00;62537.16;5052049;28;19935;-82
2023/01/16 03:46:42;;;;;;;;;;;3.70;87.90;;;-151.14;100.00;62537.16;5050921;28;19927;-81
2023/01/16 03:49:13;;;;;;;;;;;3.60;87.80;;;18.10;100.00;62537.16;5043913;28;19926;-81
2023/01/16 03:51:43;;;;;;;;;;;3.60;87.80;;;-151.14;100.00;62537.16;5088854;28;19926;-81
2023/01/16 03:54:14;;;;;;;;;;;3.60;87.80;;;-151.14;100.00;62537.16;5088685;28;19920;-82
2023/01/16 03:56:45;;;;;;;;;;;3.60;87.90;;;-151.14;100.00;62537.16;5071191;28;19920;-81
2023/01/16 03:59:13;;;;;;;;;;;3.60;87.80;;;-151.14;100.00;62537.16;5055125;28;19920;-81
2023/01/16 04:01:44;;;;;;;;;;;3.60;87.80;;;-151.14;100.00;62537.16;5055188;28;20230;-81
2023/01/16 04:04:15;;;;;;;;;;;3.60;87.90;;;-151.14;100.00;62537.16;5054966;28;19920;-81
2023/01/16 04:06:44;;;;;;;;;;;3.60;87.90;;;;;;5054596;28;19921;-81
2023/01/16 04:09:15;;;;;;;;;;;3.60;87.90;;;-151.14;100.00;62537.16;5072107;28;20127;-82
2023/01/16 04:11:43;;;;;;;;;;;3.60;87.80;;;-151.14;100.00;62537.16;5071984;28;20211;-82
2023/01/16 04:14:11;;;;;;;;;;;3.60;87.90;;;-151.14;100.00;62537.16;5073163;28;20204;-82
2023/01/16 04:16:39;;;;;;;;;;;3.60;87.90;;;-151.14;100.00;62537.16;5071093;28;19927;-81
2023/01/16 04:19:08;;;;;;;;;;;3.60;88.00;;;-151.14;100.00;62537.16;5071884;28;19920;-81
2023/01/16 04:21:37;;;;;;;;;;;3.60;88.00;;;-151.14;100.00;62537.16;5054900;28;19942;-81
2023/01/16 04:24:06;;;;;;;;;;;3.60;87.90;;;-151.14;100.00;62537.16;5068544;28;20132;-82
2023/01/16 04:26:34;;;;;;;;;;;3.60;88.00;;;-151.14;100.00;62537.16;5034497;28;19929;-81
2023/01/16 04:29:02;;;;;;;;;;;3.60;88.00;;;-151.14;100.00;62537.16;5035182;28;19921;-81
2023/01/16 04:31:29;;;;;;;;;;;3.60;88.00;;;-151.14;100.00;62537.16;5068253;28;19935;-81
2023/01/16 04:33:57;;;;;;;;;;;3.60;88.00;;;18.10;100.00;62537.16;5052268;28;19942;-81
2023/01/16 04:36:25;;;;;;;;;;;3.60;88.00;;;-151.14;100.00;62537.16;5071774;28;19943;-81
2023/01/16 04:38:55;;;;;;;;;;;3.60;88.10;;;-151.14;100.00;62537.16;5071351;28;19920;-81
2023/01/16 04:41:36;;;;;;;;;;;3.60;88.00;;;-151.14;100.00;62537.16;5054452;28;19929;-81
2023/01/16 04:44:04;;;;;;;;;;;3.60;88.00;;;-151.14;100.00;62537.16;5054531;28;20216;-81
2023/01/16 04:46:32;;;;;;;;;;;3.60;88.00;;;-151.14;100.00;62537.16;5053792;28;19920;-81
2023/01/16 04:49:00;;;;;;;;;;;3.60;88.10;;;-151.14;100.00;62537.16;5072192;28;19934;-81
2023/01/16 04:51:30;;;;;;;;;;;3.60;88.10;;;-151.14;100.00;62537.16;5068232;28;20404;-81
2023/01/16 04:53:59;;;;;;;;;;;3.60;88.10;;;-151.14;100.00;62537.16;5034521;28;20098;-81
2023/01/16 04:56:27;;;;;;;;;;;3.60;88.10;;;-151.14;100.00;62537.16;5050259;28;19921;-81
2023/01/16 04:58:55;;;;;;;;;;;3.60;88.00;;;-151.14;100.00;62537.16;5050026;28;19920;-81
2023/01/16 05:01:23;;;;;;;;;;;3.60;88.00;;;-151.14;100.00;62537.16;5034356;28;19927;-81
2023/01/16 05:03:51;;;;;;;;;;;3.60;88.00;;;-151.14;100.00;62537.16;5050739;28;19921;-81
2023/01/16 05:06:19;;;;;;;;;;;3.60;88.00;;;-151.14;100.00;62537.16;5033486;28;19927;-81
2023/01/16 05:08:47;;;;;;;;;;;3.60;88.80;;;-151.14;100.00;62537.16;5051121;28;19921;-81
2023/01/16 05:11:16;;;;;;;;;;;3.60;88.10;;;-151.14;100.00;62537.16;5034519;28;20208;-81
2023/01/16 05:13:44;;;;;;;;;;;3.60;88.00;;;-151.14;100.00;62537.16;5034362;28;19921;-81
2023/01/16 05:16:12;;;;;;;;;;;3.60;88.00;;;-151.14;100.00;62537.16;5051402;28;19927;-81
2023/01/16 05:18:40;;;;;;;;;;;3.60;88.00;;;-151.14;100.00;62537.16;5034210;28;19927;-81
2023/01/16 05:21:08;;;;;;;;;;;3.60;88.10;;;-151.14;100.00;62537.16;5050828;28;19921;-81
2023/01/16 05:23:37;;;;;;;;;;;3.60;88.10;;;-151.14;100.00;62537.16;5034459;28;19927;-81
2023/01/16 05:26:05;;;;;;;;;;;3.60;88.00;;;-151.14;100.00;62537.16;5049956;28;19921;-81
2023/01/16 05:28:34;;;;;;;;;;;3.60;88.00;;;2.26;100.00;62537.16;5050461;28;19928;-81
2023/01/16 05:31:02;;;;;;;;;;;3.60;88.10;;;2.25;100.00;62537.16;5050297;28;19927;-81
2023/01/16 05:33:31;;;;;;;;;;;3.60;88.10;;;-151.14;100.00;62537.16;5050098;28;19943;-81
2023/01/16 05:35:58;;;;;;;;;;;3.60;88.10;;;-151.14;100.00;62537.16;5049679;28;19927;-82
2023/01/16 05:38:26;;;;;;;;;;;3.60;88.10;;;-151.14;100.00;62537.16;5050245;28;19927;-81
2023/01/16 05:40:54;;;;;;;;;;;3.60;88.00;;;-151.14;100.00;62537.16;5050628;28;19921;-81
2023/01/16 05:43:22;;;;;;;;;;;3.60;88.10;;;-151.14;100.00;62537.16;5033678;28;20226;-81
2023/01/16 05:45:52;;;;;;;;;;;3.60;88.90;;;2.24;100.00;62537.16;5033025;28;19921;-82
2023/01/16 05:48:20;;;;;;;;;;;3.60;88.00;;;2.25;100.00;62537.16;5050149;28;19921;-81
2023/01/16 05:50:47;;;;;;;;;;;3.60;88.10;;;-151.14;100.00;62537.16;5050027;28;19927;-81
2023/01/16 05:53:15;;;;;;;;;;;3.60;88.00;;;-151.14;100.00;62537.16;5033750;28;20234;-81
2023/01/16 05:55:44;;;;;;;;;;;3.60;88.80;;;2.25;100.00;62537.16;5049558;28;19921;-81
2023/01/16 05:58:12;;;;;;;;;;;3.60;88.10;;;-151.14;100.00;62537.16;5033797;28;19920;-82
2023/01/16 06:00:41;;;;;;;;;;;3.60;88.20;;;-151.14;100.00;62537.16;5050435;28;19921;-81
2023/01/16 06:03:10;;;;;;;;;;;3.60;88.10;;;18.10;100.00;62537.16;5033721;28;20242;-81
2023/01/16 06:05:38;;;;;;;;;;;3.60;88.00;;;-151.14;100.00;62537.16;5053081;23;19927;-88
2023/01/16 06:08:06;;;;;;;;;;;3.60;88.00;;;-151.14;100.00;62537.16;5013688;28;19921;-87
2023/01/16 06:10:34;;;;;;;;;;;3.60;88.00;;;-151.14;100.00;62537.16;5016022;28;19921;-87
2023/01/16 06:13:01;;;;;;;;;;;3.60;88.10;;;-151.14;100.00;62537.16;5017106;28;20230;-88
2023/01/16 06:15:29;;;;;;;;;;;3.60;88.00;;;18.12;100.00;62537.16;5029828;28;20101;-87
2023/01/16 06:17:58;;;;;;;;;;;3.50;88.10;;;-151.14;100.00;62537.16;5013689;28;20093;-88
2023/01/16 06:20:27;;;;;;;;;;;3.60;88.10;;;-151.14;100.00;62537.16;5030234;28;19921;-88
2023/01/16 06:22:55;;;;;;;;;;;3.50;88.10;;;2.23;100.00;62537.16;5030247;28;20028;-87
2023/01/16 06:25:23;;;;;;;;;;;3.60;88.20;;;-151.14;100.00;62537.16;5013136;28;19958;-86
2023/01/16 06:27:51;;;;;;;;;;;3.50;88.30;;;-151.14;100.00;62537.16;5013855;28;19922;-88
2023/01/16 06:30:19;;;;;;;;;;;3.50;88.10;;;-151.14;100.00;62537.16;5030160;28;19922;-88
2023/01/16 06:32:49;;;;;;;;;;;3.50;88.10;;;-151.14;100.00;62537.16;5030053;28;19921;-87
2023/01/16 06:35:17;;;;;;;;;;;3.50;88.20;;;2.21;100.00;62537.16;5029275;28;19928;-88
2023/01/16 06:37:46;;;;;;;;;;;3.50;88.30;;;-151.14;100.00;62537.16;5013522;28;19921;-87
2023/01/16 06:40:14;;;;;;;;;;;3.50;88.20;;;-151.14;100.00;62537.16;5030083;28;19928;-87
2023/01/16 06:42:42;;;;;;;;;;;3.50;88.10;;;-151.14;100.00;62537.16;5013510;28;19922;-88
2023/01/16 06:45:11;;;;;;;;;;;3.50;88.30;;;2.21;100.00;62537.16;5013018;28;20227;-88
2023/01/16 06:47:39;;;;;;;;;;;3.50;88.90;;;-151.14;100.00;62537.16;5013467;28;19928;-87
2023/01/16 06:50:07;;;;;;;;;;;3.50;88.10;;;-151.14;100.00;62537.16;5029901;28;19928;-88
2023/01/16 06:52:35;;;;;;;;;;;3.50;88.20;;;-151.14;100.00;62537.16;5029679;28;19921;-88
2023/01/16 06:55:05;;;;;;;;;;;3.50;88.10;;;-151.14;100.00;62537.16;5014276;28;20227;-88
2023/01/16 06:57:35;;;;;;;;;;;3.50;88.10;;;-151.14;100.00;62537.16;5012995;28;19922;-87
2023/01/16 07:00:03;;;;;;;;;;;3.50;88.10;;;-151.14;100.00;62537.16;5013152;28;19921;-88
2023/01/16 07:02:31;;;;;;;;;;;3.50;88.10;;;-151.14;100.00;62537.16;5029555;28;19923;-88
2023/01/16 07:04:59;;;;;;;;;;;3.50;88.10;;;-151.14;100.00;62537.16;5012811;28;19922;-88
2023/01/16 07:07:27;;;;;;;;;;;3.50;88.00;;;-151.14;100.00;62537.16;5012553;28;19928;-88
2023/01/16 07:09:55;;;;;;;;;;;3.50;88.00;;;-151.14;100.00;62537.16;4996692;28;19922;-87
2023/01/16 07:12:24;;;;;;;;;;;3.50;88.20;;;-151.14;100.00;62537.16;4996902;28;19921;-88
2023/01/16 07:23:15;;;;;;;;;;;3.50;88.10;;;-151.14;100.00;62537.16;5012415;28;19932;-88
2023/01/16 07:25:43;;;;;;;;;;;3.50;88.10;;;-151.14;100.00;62537.16;5012417;28;19922;-88
2023/01/16 07:28:12;;;;;;;;;;;3.50;88.10;;;-151.14;100.00;62537.16;5013990;28;20221;-87
2023/01/16 07:30:40;;;;;;;;;;;3.50;88.00;;;18.09;100.00;62537.16;5029201;28;19928;-87
2023/01/16 07:33:08;;;;;;;;;;;3.50;88.10;;;-151.14;100.00;62537.16;5029126;28;19927;-88
2023/01/16 07:35:36;;;;;;;;;;;3.50;88.10;;;-151.14;100.00;62537.16;5028573;28;20121;-88
2023/01/16 07:38:04;;;;;;;;;;;3.50;88.10;;;-151.14;100.00;62537.16;5029116;28;20120;-88
2023/01/16 07:40:32;;;;;;;;;;;3.50;88.10;;;-151.14;100.00;62537.16;4996433;28;19922;-88
2023/01/16 07:43:00;;;;;;;;;;;3.50;88.10;;;-151.14;100.00;62537.16;5012565;28;19925;-88
2023/01/16 07:45:29;;;;;;;;;;;3.50;88.20;;;-151.14;100.00;62537.16;5028447;28;20106;-88
2023/01/16 07:47:57;;;;;;;;;;;3.50;88.10;;;-151.14;100.00;62537.16;5028840;28;19928;-88
2023/01/16 07:50:25;;;;;;;;;;;3.50;88.10;;;-151.14;100.00;62537.16;5028934;28;19921;-87
2023/01/16 07:52:53;;;;;;;;;;;3.50;88.10;;;2.28;100.00;62537.16;5028778;28;19922;-87
2023/01/16 07:55:21;;;;;;;;;;;3.50;88.10;;;2.21;100.00;62537.16;5028188;28;19928;-88
2023/01/16 07:57:49;;;;;;;;;;;3.50;88.10;;;-151.14;100.00;62537.16;5012278;28;19928;-88
2023/01/16 08:00:17;;;;;;;;;;;3.50;88.10;;;-151.14;100.00;62537.16;5012399;28;19926;-88
2023/01/16 08:02:47;;;;;;;;;;;3.50;88.10;;;-151.14;100.00;62537.16;5028661;28;19991;-88
2023/01/16 08:05:14;;;;;;;;;;;3.50;88.10;;;-151.14;100.00;62537.16;5027917;28;19928;-89
2023/01/16 08:07:42;;;;;;;;;;;3.50;88.10;;;-151.14;100.00;62537.16;4995911;28;19928;-88
2023/01/16 08:10:12;;;;;;;;;;;3.50;88.00;;;-151.14;100.00;62537.16;5028424;28;19928;-88
2023/01/16 08:12:40;;;;;;;;;;;3.50;88.00;;;-151.14;100.00;62537.16;4995742;28;19922;-87
2023/01/16 08:15:08;;;;;;;;;;;3.50;88.00;;;-151.14;100.00;62537.16;5011542;28;19935;-87
2023/01/16 08:17:39;;;;;;;;;;;3.50;88.00;;;-151.14;100.00;62537.16;5011904;28;19928;-88
2023/01/16 08:20:10;;;;;;;;;;;3.50;88.00;;;-151.14;100.00;62537.16;5011800;28;19921;-88
2023/01/16 08:22:42;;;;;;;;;;;3.50;88.00;;;-151.14;100.00;62537.16;5028588;28;19921;-88
2023/01/16 08:25:10;;;;;;;;;;;3.50;88.00;;;-151.14;100.00;62537.16;5011394;28;19936;-88
2023/01/16 08:27:38;;;;;;;;;;;3.50;88.00;;;-151.14;100.00;62537.16;5011954;28;19928;-89
2023/01/16 08:30:07;;;;;;;;;;;3.50;88.00;;;2.20;100.00;62537.16;5011702;28;19921;-88
2023/01/16 08:32:36;;;;;;;;;;;3.50;88.00;;;-151.14;100.00;62537.16;5012011;28;19922;-88
2023/01/16 08:35:04;;;;;;;;;;;3.50;88.00;;;-151.14;100.00;62537.16;5028057;28;19938;-89
2023/01/16 08:37:33;;;;;;;;;;;3.50;88.00;;;-151.14;100.00;62537.16;5011643;28;19928;-89
2023/01/16 08:40:03;;;;;;;;;;;3.50;88.00;;;-151.14;100.00;62537.16;5028110;28;19928;-88
2023/01/16 08:53:34;;;;;;;;;;;3.60;87.90;;;2.25;100.00;62537.16;4992003;28;20217;-89
2023/01/16 08:56:02;;;;;;;;;;;3.60;87.90;;;-151.14;100.00;62537.16;4991262;28;19944;-89
2023/01/16 08:58:30;;;;;;;;;;;3.60;88.00;;;-151.14;100.00;62537.16;4991812;28;20106;-88
2023/01/16 09:00:58;;;;;;;;;;;3.60;87.80;;;-151.14;100.00;62537.16;5008162;28;19944;-88
2023/01/16 09:03:26;;;;;;;;;;;3.60;87.90;;;-151.14;100.00;62537.16;4991894;28;19928;-87
2023/01/16 09:05:54;;;;;;;;;;;3.60;87.80;;;2.23;100.00;62537.16;4991174;28;19922;-88
2023/01/16 09:08:22;;;;;;;;;;;3.60;87.90;;;-151.14;100.00;62537.16;4991766;28;19922;-88
2023/01/16 09:13:51;;;;;;;;;;;3.60;87.90;;;-151.14;100.00;62537.16;5007268;28;20422;-87
2023/01/16 09:16:20;;;;;;;;;;;3.60;87.90;;;-151.14;100.00;62537.16;5007235;28;19922;-87
2023/01/16 09:18:48;;;;;;;;;;;3.60;87.80;;;-151.14;100.00;62537.16;4991441;28;19922;-87
2023/01/16 09:21:18;;;;;;;;;;;3.60;87.80;;;2.24;100.00;62537.16;5007894;28;19922;-87
2023/01/16 09:23:46;;;;;;;;;;;3.60;87.90;;;-151.14;100.00;62537.16;4991572;28;19928;-88
2023/01/16 09:26:15;;;;;;;;;;;3.60;87.80;;;-151.14;100.00;62537.16;4991938;28;20209;-87
2023/01/16 09:28:43;;;;;;;;;;;3.60;87.70;;;2.24;100.00;62537.16;5007905;28;19922;-88
2023/01/16 09:31:11;;;;;;;;;;;3.60;87.80;;;-151.14;100.00;62537.16;5007622;28;19922;-88
2023/01/16 09:33:40;;;;;;;;;;;3.60;87.70;;;-151.14;100.00;62537.16;4991325;28;20090;-89
2023/01/16 09:36:08;;;;;;;;;;;3.60;87.70;;;-151.14;100.00;62537.16;4990875;28;19922;-87
2023/01/16 09:38:36;;;;;;;;;;;3.60;87.80;;;2.26;100.00;62537.16;5007671;28;20256;-88
2023/01/16 09:41:04;;;;;;;;;;;3.60;87.70;;;-151.14;100.00;62537.16;4991277;28;20239;-88
2023/01/16 09:43:38;;;;;;;;;;;3.60;87.80;;;-151.14;100.00;62537.16;4991273;28;20205;-87
2023/01/16 09:46:09;;;;;;;;;;;3.60;87.60;;;-151.14;100.00;62537.16;4990130;28;19922;-88
2023/01/16 09:48:39;;;;;;;;;;;3.60;87.70;;;-151.14;100.00;62537.16;5007648;28;19926;-89
2023/01/16 09:51:08;;;;;;;;;;;3.60;87.80;;;-151.14;100.00;62537.16;4991097;28;20132;-88
2023/01/16 09:59:24;;;;;;;;;;;3.60;87.60;;;2.24;100.00;62537.16;4991046;28;20259;-89
2023/01/16 10:01:55;;;;;;;;;;;3.60;87.80;;;-151.14;100.00;62537.16;5007325;28;19929;-87
2023/01/16 10:04:24;;;;;;;;;;;3.60;87.70;;;-151.14;100.00;62537.16;4991119;28;19922;-88
2023/01/16 10:06:57;;;;;;;;;;;3.60;87.50;;;-151.14;100.00;62537.16;4991494;28;20205;-89
2023/01/16 10:09:28;;;;;;;;;;;3.60;87.60;;;-151.14;100.00;62537.16;5007310;28;19932;-89
2023/01/16 10:11:58;;;;;;;;;;;3.60;87.60;;;-151.14;100.00;62537.16;4990935;28;19922;-89
2023/01/16 10:14:43;;;;;;;;;;;3.60;87.70;;;-151.14;100.00;62537.16;5007149;28;19922;-89
2023/01/16 10:17:17;;;;;;;;;;;3.60;87.70;;;2.23;100.00;62537.16;5026321;28;19921;-90
2023/01/16 10:19:53;;;;;;;;;;;3.60;87.70;;;2.25;100.00;62537.16;5010220;28;20120;-88
2023/01/16 10:22:30;;;;;;;;;;;3.60;87.70;;;2.25;100.00;62537.16;5010399;28;19921;-89
2023/01/16 10:25:06;;;;;;;;;;;3.60;87.70;;;-151.14;100.00;62537.16;5026598;28;19922;-89
2023/01/16 10:27:35;;;;;;;;;;;3.60;87.60;;;;;;5010179;28;19954;-89
2023/01/16 10:30:05;;;;;;;;;;;3.60;87.70;;;-151.14;100.00;62537.16;5010232;28;20205;-89
2023/01/16 10:32:35;;;;;;;;;;;3.60;87.70;;;-151.14;100.00;62537.16;5026881;28;19921;-90
2023/01/16 10:35:04;;;;;;;;;;;3.60;87.60;;;-151.14;100.00;62537.16;5010146;28;19922;-89
2023/01/16 10:37:32;;;;;;;;;;;3.60;87.70;;;-151.14;100.00;62537.16;5026384;28;19928;-90
2023/01/16 10:40:01;;;;;;;;;;;3.60;87.70;;;-151.14;100.00;62537.16;5026537;28;19922;-90
2023/01/16 10:50:53;;;;;;;;;;;3.60;87.60;;;-151.14;100.00;62537.16;5026132;28;19922;-89
2023/01/16 10:53:21;;;;;;;;;;;3.60;87.70;;;2.25;100.00;62537.16;5026496;28;19922;-90
2023/01/16 10:55:51;;;;;;;;;;;3.60;87.60;;;-151.14;100.00;62537.16;5009273;28;20217;-88
2023/01/16 10:58:25;;;;;;;;;;;3.60;87.60;;;2.22;100.00;62537.16;4996638;28;19921;-90
2023/01/16 11:00:56;;;;;;;;;;;3.60;87.60;;;-151.14;100.00;62537.16;5013097;28;19944;-90
2023/01/16 11:03:28;;;;;;;;;;;3.60;87.60;;;-151.14;100.00;62537.16;5013275;28;19928;-90
2023/01/16 11:06:07;;;;;;;;;;;3.60;87.60;;;-151.14;100.00;62537.16;5012541;28;19922;-89
2023/01/16 11:08:35;;;;;;;;;;;3.60;87.60;;;-151.14;100.00;62537.16;5013140;28;19928;-89
2023/01/16 11:11:03;;;;;;;;;;;3.60;87.70;;;-151.14;100.00;62537.16;5013062;28;19928;-89
2023/01/16 11:19:19;;;;;;;;;;;3.60;87.60;;;-151.14;100.00;62537.16;4922344;29;19923;-91
2023/01/16 11:21:50;;;;;;;;;;;3.60;87.60;;;-151.14;100.00;62537.16;4964283;28;19922;-89
2023/01/16 11:24:20;;;;;;;;;;;3.60;87.60;;;-151.14;100.00;62537.16;5012997;28;19921;-89
2023/01/16 11:26:50;;;;;;;;;;;3.60;87.60;;;-151.14;100.00;62537.16;5013496;28;19921;-89
2023/01/16 11:29:18;;;;;;;;;;;3.60;87.50;;;2.26;100.00;62537.16;5029272;28;19927;-90
2023/01/16 11:31:53;;;;;;;;;;;3.60;87.50;;;-151.14;100.00;62537.16;5029356;28;19922;-91
2023/01/16 11:34:21;;;;;;;;;;;3.60;87.50;;;-151.14;100.00;62537.16;5029193;28;19930;-90
2023/01/16 11:36:49;;;;;;;;;;;3.60;87.40;;;-151.14;100.00;62537.16;5012207;28;19943;-90
2023/01/16 11:39:21;;;;;;;;;;;3.60;87.30;;;-151.14;100.00;62537.16;5029100;28;19922;-89
2023/01/16 11:41:50;;;;;;;;;;;3.60;87.30;;;-151.14;100.00;62537.16;5012833;28;20120;-90
2023/01/16 11:47:06;;;;;;;;;;;3.60;87.20;;;-151.14;100.00;62537.16;4995561;28;20128;-90
2023/01/16 11:49:35;;;;;;;;;;;3.60;87.20;;;-151.14;100.00;62537.16;5029041;28;19921;-90
2023/01/16 11:52:03;;;;;;;;;;;3.60;87.20;;;2.30;100.00;62537.16;4996252;28;19922;-89
2023/01/16 11:54:32;;;;;;;;;;;3.60;87.20;;;-151.14;100.00;62537.16;4996079;28;20216;-89
2023/01/16 11:57:21;;;;;;;;;;;3.60;87.20;;;-151.14;100.00;62537.16;4995513;28;19922;-90
2023/01/16 12:00:16;;;;;;;;;;;3.60;87.10;;;-151.14;100.00;62537.16;5028691;28;19922;-89
2023/01/16 12:03:04;;;;;;;;;;;3.60;87.10;;;2.29;100.00;62537.16;4990606;28;19921;-90
2023/01/16 12:05:57;;;;;;;;;;;3.60;87.10;;;2.29;100.00;62537.16;5012735;28;19921;-89
2023/01/16 12:09:03;;;;;;;;;;;3.60;87.10;;;2.28;100.00;62537.16;5012341;28;19921;-89